Time;durP1;ratioP1;P1;durP2;ratioP2;P2;SDS_P1;SDS_P2;PMS_P1;PMS_P2;Temp;Humidity;BMP_temperature;BMP_pressure;BME280_temperature;BME280_humidity;BME280_pressure;Samples;Min_cycle;Max_cycle;Signal;HPM_P1;HPM_P2
2022/01/02 00:00:19;;;;;;;13.35;9.88;;;;;;;7.87;71.86;95544.25;5115318;28;20032;-75
2022/01/02 00:02:49;;;;;;;14.32;10.20;;;;;;;7.77;72.08;95538.81;5097377;28;20101;-76
2022/01/02 00:05:15;;;;;;;13.30;9.73;;;;;;;7.85;72.16;95538.31;5097264;28;20485;-77
2022/01/02 00:08:02;;;;;;;14.35;10.02;;;;;;;7.88;72.59;95542.47;5097532;28;20038;-77
2022/01/02 00:10:31;;;;;;;13.98;9.45;;;;;;;7.97;72.17;95553.13;5115483;28;20024;-76
2022/01/02 00:12:57;;;;;;;13.65;10.50;;;;;;;7.95;72.16;95554.97;5115153;28;20078;-77
2022/01/02 00:15:24;;;;;;;14.35;10.65;;;;;;;7.98;71.87;95548.78;5097188;28;20050;-77
2022/01/02 00:17:50;;;;;;;13.32;11.27;;;;;;;7.93;71.83;95546.44;5080690;28;20035;-77
2022/01/02 00:20:17;;;;;;;13.38;10.27;;;;;;;8.07;71.83;95554.19;5097200;28;20020;-77
2022/01/02 00:22:48;;;;;;;13.80;10.27;;;;;;;8.14;71.54;95559.84;5097044;28;20024;-77
2022/01/02 00:25:24;;;;;;;12.10;9.88;;;;;;;8.13;71.57;95557.34;5097803;28;20030;-76
2022/01/02 00:27:49;;;;;;;12.93;9.60;;;;;;;8.19;71.39;95564.72;5098625;28;20039;-76
2022/01/02 00:30:15;;;;;;;11.95;9.20;;;;;;;8.24;71.03;95566.09;5096523;28;20048;-76
2022/01/02 00:32:40;;;;;;;13.65;10.93;;;;;;;8.23;71.29;95555.84;5096502;28;20027;-77
2022/01/02 00:35:06;;;;;;;11.75;9.77;;;;;;;8.15;71.43;95565.84;5079777;28;20034;-77
2022/01/02 00:37:31;;;;;;;12.60;9.88;;;;;;;8.15;71.30;95551.16;5096828;28;20023;-76
2022/01/02 00:39:57;;;;;;;13.13;9.60;;;;;;;8.21;71.21;95555.13;5097015;28;20039;-77
2022/01/02 00:42:28;;;;;;;12.30;9.43;;;;;;;8.27;70.96;95554.72;5096627;28;20030;-78
2022/01/02 00:45:02;;;;;;;10.57;9.02;;;;;;;8.27;70.91;95560.75;5124746;27;20503;-77
2022/01/02 00:47:31;;;;;;;11.23;9.38;;;;;;;8.36;70.49;95558.50;5123457;27;20493;-77
2022/01/02 00:50:07;;;;;;;10.38;9.27;;;;;;;8.40;70.37;95560.84;5096627;28;20043;-77
2022/01/02 00:52:39;;;;;;;10.88;9.13;;;;;;;8.41;70.54;95564.25;5096562;27;20027;-77
2022/01/02 00:55:11;;;;;;;11.30;8.65;;;;;;;8.40;70.45;95560.03;5132665;27;20360;-76
2022/01/02 00:57:38;;;;;;;10.60;8.63;;;;;;;8.43;70.31;95565.84;5133543;27;20124;-76
2022/01/02 01:00:05;;;;;;;11.38;8.93;;;;;;;8.31;70.28;95561.41;5099830;27;20050;-76
2022/01/02 01:02:44;;;;;;;11.35;9.07;;;;;;;8.39;69.95;95563.53;5133770;27;20026;-76
2022/01/02 01:05:09;;;;;;;13.18;9.52;;;;;;;8.38;69.91;95565.25;5116853;27;20039;-76
2022/01/02 01:07:36;;;;;;;11.85;9.35;;;;;;;8.36;70.43;95554.19;5098600;27;20026;-76
2022/01/02 01:10:06;;;;;;;10.48;8.75;;;;;;;8.42;70.18;95560.75;5133448;27;20019;-76
2022/01/02 01:12:31;;;;;;;10.07;8.57;;;;;;;8.39;70.10;95563.53;5117268;27;20030;-76
2022/01/02 01:14:57;;;;;;;12.73;9.63;;;;;;;8.42;70.15;95564.19;5116624;27;20293;-76
2022/01/02 01:17:24;;;;;;;10.93;9.05;;;;;;;8.40;70.10;95566.03;5133512;27;20537;-76
2022/01/02 01:19:51;;;;;;;10.25;8.73;;;;;;;8.36;70.06;95559.34;5116581;27;20111;-76
2022/01/02 01:22:17;;;;;;;11.23;9.15;;;;;;;8.48;69.48;95565.56;5134606;27;20019;-76
2022/01/02 01:24:43;;;;;;;10.30;8.43;;;;;;;8.47;69.56;95572.50;5133653;27;20039;-76
2022/01/02 01:27:09;;;;;;;11.70;8.30;;;;;;;8.45;69.37;95569.16;5116282;27;20034;-76
2022/01/02 01:29:35;;;;;;;11.07;8.27;;;;;;;8.52;69.05;95569.59;5098869;27;20047;-76
2022/01/02 01:32:04;;;;;;;10.77;8.82;;;;;;;8.51;69.27;95565.34;5116078;27;20030;-75
2022/01/02 01:34:30;;;;;;;10.18;8.43;;;;;;;8.47;69.27;95561.31;5098994;27;20092;-75
2022/01/02 01:36:55;;;;;;;9.82;8.00;;;;;;;8.49;69.42;95562.03;5098837;27;20023;-75
2022/01/02 01:39:21;;;;;;;10.20;7.75;;;;;;;8.54;69.05;95559.16;5098652;27;20027;-76
2022/01/02 01:41:47;;;;;;;10.57;8.43;;;;;;;8.48;69.07;95556.03;5115896;27;20031;-77
2022/01/02 01:46:38;;;;;;;11.43;8.85;;;;;;;8.57;69.04;95567.56;5095484;28;20024;-76
2022/01/02 01:49:20;;;;;;;12.18;9.65;;;;;;;8.50;68.73;95556.75;5095303;28;20466;-76
2022/01/02 01:51:45;;;;;;;10.65;8.40;;;;;;;8.45;68.51;95569.16;5112240;28;20023;-76
2022/01/02 01:54:11;;;;;;;10.15;8.98;;;;;;;8.38;68.63;95575.59;5095211;28;20039;-76
2022/01/02 01:56:39;;;;;;;10.32;8.35;;;;;;;8.40;69.34;95576.38;5112167;28;20417;-76
2022/01/02 01:59:05;;;;;;;13.05;8.38;;;;;;;8.23;69.90;95568.81;5095205;28;20036;-76
2022/01/02 02:01:30;;;;;;;9.65;8.25;;;;;;;8.14;69.21;95546.91;5094943;28;20030;-76
2022/01/02 02:03:56;;;;;;;14.55;9.98;;;;;;;8.44;69.36;95561.47;5078273;28;20043;-76
2022/01/02 02:06:22;;;;;;;12.20;9.63;;;;;;;8.43;68.93;95554.66;5094905;28;20023;-76
2022/01/02 02:08:47;;;;;;;9.45;7.85;;;;;;;8.28;69.39;95556.41;5094534;28;20058;-76
2022/01/02 02:11:13;;;;;;;9.15;7.43;;;;;;;8.39;69.08;95555.78;5095156;28;20409;-76
2022/01/02 02:13:38;;;;;;;9.77;7.63;;;;;;;8.50;68.56;95559.34;5111716;28;20039;-75
2022/01/02 02:16:04;;;;;;;9.27;7.80;;;;;;;8.39;68.16;95553.19;5108139;27;20023;-75
2022/01/02 02:18:29;;;;;;;9.02;7.07;;;;;;;8.54;68.69;95556.56;5111112;28;20035;-75
2022/01/02 02:20:55;;;;;;;8.00;6.95;;;;;;;8.49;68.73;95554.25;5094342;28;20020;-75
2022/01/02 02:23:20;;;;;;;8.02;6.57;;;;;;;8.59;68.35;95559.72;5112611;28;20110;-76
2022/01/02 02:25:46;;;;;;;7.90;6.85;;;;;;;8.42;69.58;95564.19;5112721;28;20028;-76
2022/01/02 02:28:13;;;;;;;7.50;6.70;;;;;;;8.45;69.17;95558.81;5112342;28;20030;-75
2022/01/02 02:30:40;;;;;;;8.85;6.78;;;;;;;8.52;68.77;95567.00;5094232;28;20524;-75
2022/01/02 02:33:06;;;;;;;8.48;6.78;;;;;;;8.43;68.96;95571.00;5111144;28;20040;-75
2022/01/02 02:35:32;;;;;;;7.70;6.65;;;;;;;8.45;68.41;95563.16;5094252;28;20516;-75
2022/01/02 02:37:58;;;;;;;8.35;7.20;;;;;;;8.43;69.03;95567.59;5077234;28;20028;-75
2022/01/02 02:40:25;;;;;;;10.25;6.65;;;;;;;8.42;69.30;95563.34;5094118;28;20035;-75
2022/01/02 02:42:55;;;;;;;9.00;7.35;;;;;;;8.14;69.33;95569.38;5094149;28;20027;-75
2022/01/02 02:51:08;;;;;;;8.70;7.45;;;;;;;8.30;69.18;95564.88;5132032;27;20099;-75
2022/01/02 02:53:34;;;;;;;8.93;7.53;;;;;;;8.34;69.03;95556.03;5114550;27;20055;-75
2022/01/02 02:56:00;;;;;;;9.70;7.72;;;;;;;8.29;69.25;95555.47;5114353;27;20019;-75
2022/01/02 03:00:57;;;;;;;;;;;;;;;8.43;69.04;95571.00;5124823;27;20035;-75
2022/01/02 03:03:22;;;;;;;8.30;7.22;;;;;;;8.37;69.10;95575.72;5110841;28;19920;-75
2022/01/02 03:05:48;;;;;;;10.80;8.13;;;;;;;8.42;68.98;95577.13;5110706;28;20096;-76
2022/01/02 03:08:13;;;;;;;11.02;7.85;;;;;;;8.11;69.76;95574.72;5110849;28;20040;-75
2022/01/02 03:10:39;;;;;;;8.35;7.13;;;;;;;8.28;69.24;95580.53;5110815;28;20054;-76
2022/01/02 03:13:04;;;;;;;7.80;7.00;;;;;;;8.22;69.96;95585.28;5076751;28;20032;-76
2022/01/02 03:15:30;;;;;;;11.75;7.40;;;;;;;8.06;70.25;95588.78;5093549;28;20032;-76
2022/01/02 03:17:55;;;;;;;8.55;7.25;;;;;;;8.02;69.62;95573.53;5093764;28;20475;-76
2022/01/02 03:20:20;;;;;;;10.43;8.40;;;;;;;8.16;69.03;95583.88;5110719;28;20477;-76
2022/01/02 03:22:46;;;;;;;9.65;7.28;;;;;;;8.01;69.97;95583.03;5110771;28;20031;-76
2022/01/02 03:25:14;;;;;;;8.98;7.57;;;;;;;8.03;69.28;95578.63;5093474;28;20016;-76
2022/01/02 03:27:40;;;;;;;8.68;7.40;;;;;;;8.11;69.44;95585.06;5077439;28;20043;-76
2022/01/02 03:30:06;;;;;;;8.68;7.05;;;;;;;8.11;69.42;95579.88;5093031;28;20044;-76
2022/01/02 03:32:32;;;;;;;9.43;7.20;;;;;;;8.21;69.41;95581.00;5093585;28;20027;-76
2022/01/02 03:34:57;;;;;;;9.05;7.43;;;;;;;8.08;70.84;95583.53;5110193;28;20066;-76
2022/01/02 03:37:27;;;;;;;10.05;7.47;;;;;;;8.10;71.05;95575.66;5110570;28;20027;-76
2022/01/02 03:39:53;;;;;;;8.00;7.00;;;;;;;8.09;70.75;95576.59;5112280;28;20474;-76
2022/01/02 03:42:18;;;;;;;8.27;6.78;;;;;;;8.05;70.99;95576.78;5110597;28;20047;-76
2022/01/02 03:44:44;;;;;;;9.13;7.18;;;;;;;8.08;70.52;95578.34;5120123;28;20450;-76
2022/01/02 03:47:09;;;;;;;9.82;7.80;;;;;;;8.05;70.38;95581.94;5131068;28;20030;-76
2022/01/02 03:49:35;;;;;;;9.40;7.63;;;;;;;8.03;70.71;95576.03;5113911;28;20061;-76
2022/01/02 03:52:00;;;;;;;9.70;6.80;;;;;;;7.97;70.45;95568.66;5131064;28;20027;-76
2022/01/02 03:54:25;;;;;;;9.05;7.63;;;;;;;8.10;70.10;95586.00;5132235;27;20457;-76
2022/01/02 03:56:53;;;;;;;10.82;7.00;;;;;;;8.05;69.86;95570.75;5113850;28;20023;-76
2022/01/02 03:59:19;;;;;;;7.95;6.82;;;;;;;8.00;70.83;95576.22;5114214;28;20501;-76
2022/01/02 04:01:44;;;;;;;9.70;7.38;;;;;;;8.07;70.29;95585.25;5132130;27;20068;-77
2022/01/02 04:04:09;;;;;;;9.57;7.78;;;;;;;8.11;69.48;95580.75;5131725;27;20028;-76
2022/01/02 04:06:35;;;;;;;9.23;7.40;;;;;;;8.11;69.70;95587.66;5130777;27;20015;-76
2022/01/02 04:09:00;;;;;;;9.10;7.53;;;;;;;8.13;69.16;95578.03;5130876;28;20038;-76
2022/01/02 04:11:26;;;;;;;7.75;6.95;;;;;;;8.13;69.80;95589.22;5130757;27;20015;-76
2022/01/02 04:13:51;;;;;;;10.50;7.28;;;;;;;8.13;69.69;95598.75;5130503;28;20062;-76
2022/01/02 04:16:16;;;;;;;8.35;7.10;;;;;;;8.17;69.54;95600.25;5132025;27;20023;-76
2022/01/02 04:18:42;;;;;;;9.23;7.15;;;;;;;8.20;69.07;95605.22;5096262;27;20445;-75
2022/01/02 04:21:07;;;;;;;9.32;7.25;;;;;;;8.22;69.30;95606.81;5115507;27;20394;-75
2022/01/02 04:23:33;;;;;;;9.10;7.45;;;;;;;8.17;68.82;95606.25;5119915;28;20488;-75
2022/01/02 04:25:58;;;;;;;8.35;7.00;;;;;;;8.10;69.31;95610.13;5113322;28;20594;-75
2022/01/02 04:28:24;;;;;;;10.05;7.60;;;;;;;8.15;69.73;95615.03;5113242;28;20062;-75
2022/01/02 04:30:49;;;;;;;9.57;7.10;;;;;;;8.10;69.87;95614.47;5107535;28;20051;-75
2022/01/02 04:33:15;;;;;;;12.10;9.00;;;;;;;8.14;69.36;95615.97;5109838;28;20028;-75
2022/01/02 04:35:40;;;;;;;12.57;9.30;;;;;;;7.98;69.57;95614.28;5109934;28;20020;-75
2022/01/02 04:38:05;;;;;;;10.75;8.75;;;;;;;8.06;70.05;95614.66;5109903;28;20042;-75
2022/01/02 04:40:31;;;;;;;10.18;7.85;;;;;;;8.08;69.46;95614.56;5092843;28;20429;-76
2022/01/02 04:42:56;;;;;;;10.27;8.43;;;;;;;8.15;69.83;95615.84;5111719;28;20031;-76
2022/01/02 04:45:22;;;;;;;9.50;7.15;;;;;;;8.14;70.25;95616.78;5113293;28;20378;-75
2022/01/02 04:47:47;;;;;;;9.88;8.15;;;;;;;8.11;70.10;95614.38;5107831;27;20412;-76
2022/01/02 04:50:12;;;;;;;10.77;8.15;;;;;;;8.17;69.66;95614.00;5133783;27;20378;-76
2022/01/02 04:52:38;;;;;;;16.27;11.75;;;;;;;8.06;69.93;95619.00;5133759;27;20019;-75
2022/01/02 04:55:04;;;;;;;13.57;10.60;;;;;;;8.14;69.84;95621.13;5134946;27;20030;-76
2022/01/02 04:57:29;;;;;;;14.02;10.95;;;;;;;8.11;69.94;95626.47;5134938;27;20458;-75
2022/01/02 04:59:55;;;;;;;10.55;8.55;;;;;;;8.11;70.02;95631.66;5099458;27;20034;-76
2022/01/02 05:02:20;;;;;;;15.98;13.38;;;;;;;8.02;70.06;95623.53;5135127;27;20023;-77
2022/01/02 05:04:45;;;;;;;17.45;14.75;;;;;;;8.05;69.75;95633.69;5116932;27;20035;-76
2022/01/02 05:07:13;;;;;;;14.70;11.55;;;;;;;8.11;70.18;95629.91;5133782;27;20075;-76
2022/01/02 05:09:39;;;;;;;14.00;10.68;;;;;;;8.08;70.20;95627.50;5099966;27;20035;-76
2022/01/02 05:12:04;;;;;;;11.93;9.18;;;;;;;8.05;70.29;95630.25;5133629;27;20462;-76
2022/01/02 05:14:30;;;;;;;44.47;37.38;;;;;;;8.07;70.32;95633.59;5099420;27;20027;-76
2022/01/02 05:16:55;;;;;;;51.60;26.80;;;;;;;8.02;70.19;95631.31;5134973;27;20035;-76
2022/01/02 05:19:21;;;;;;;62.95;35.13;;;;;;;8.10;70.07;95627.41;5133359;27;20052;-76
2022/01/02 05:21:46;;;;;;;22.73;14.82;;;;;;;8.06;70.25;95624.19;5133645;27;20481;-76
2022/01/02 05:24:12;;;;;;;15.93;11.70;;;;;;;8.04;69.91;95626.03;5133622;27;20063;-76
2022/01/02 05:26:38;;;;;;;21.15;16.60;;;;;;;8.02;70.12;95613.19;5133300;27;20038;-76
2022/01/02 05:29:03;;;;;;;17.13;12.27;;;;;;;7.98;70.43;95637.56;5137189;27;20047;-76
2022/01/02 05:31:29;;;;;;;19.58;12.88;;;;;;;8.15;69.97;95633.16;5135310;27;20066;-76
2022/01/02 05:33:54;;;;;;;13.57;10.73;;;;;;;8.05;70.07;95609.56;5116066;27;20489;-76
2022/01/02 05:36:20;;;;;;;11.77;8.65;;;;;;;8.17;69.93;95624.38;5132878;27;20042;-76
2022/01/02 05:38:45;;;;;;;11.65;8.43;;;;;;;8.16;69.89;95624.44;5133183;27;20027;-77
2022/01/02 05:41:10;;;;;;;11.38;9.00;;;;;;;8.10;70.58;95632.59;5116037;27;20019;-77
2022/01/02 05:43:36;;;;;;;41.55;32.17;;;;;;;7.92;70.53;95627.59;5116013;27;20035;-76
2022/01/02 05:46:05;;;;;;;17.25;14.65;;;;;;;7.97;70.45;95630.75;5112229;28;20024;-76
2022/01/02 05:48:31;;;;;;;11.75;9.13;;;;;;;7.95;70.51;95631.75;5095992;28;20038;-76
2022/01/02 05:50:59;;;;;;;15.23;12.18;;;;;;;8.07;70.39;95631.00;5095576;28;20027;-76
2022/01/02 05:53:24;;;;;;;17.13;13.07;;;;;;;8.02;70.12;95633.03;5113264;28;20035;-76
2022/01/02 05:55:50;;;;;;;12.65;9.32;;;;;;;7.97;70.28;95635.91;5095297;28;20035;-76
2022/01/02 05:58:15;;;;;;;33.08;21.77;;;;;;;7.96;70.50;95629.06;5113844;28;20497;-76
2022/01/02 06:00:41;;;;;;;11.80;9.25;;;;;;;7.86;70.88;95630.53;5095182;28;20113;-76
2022/01/02 06:03:06;;;;;;;15.40;11.07;;;;;;;7.92;70.84;95637.09;5095382;28;20036;-76
2022/01/02 06:05:31;;;;;;;17.67;11.35;;;;;;;7.89;70.70;95629.53;5094863;28;20023;-76
2022/01/02 06:07:57;;;;;;;15.10;10.27;;;;;;;7.86;70.87;95632.31;5095147;28;20116;-77
2022/01/02 06:10:22;;;;;;;12.88;9.25;;;;;;;7.94;70.54;95638.69;5111937;28;20024;-76
2022/01/02 06:12:48;;;;;;;13.10;9.70;;;;;;;7.86;70.64;95635.72;5111745;28;20015;-76
2022/01/02 06:15:13;;;;;;;15.90;10.00;;;;;;;7.86;71.15;95643.47;5118386;27;20027;-76
2022/01/02 06:17:39;;;;;;;14.25;9.40;;;;;;;7.76;71.02;95637.16;5088037;27;20473;-76
2022/01/02 06:20:05;;;;;;;12.25;10.35;;;;;;;7.86;70.85;95653.81;5111572;27;20050;-76
2022/01/02 06:22:30;;;;;;;13.95;11.60;;;;;;;7.82;71.42;95647.16;5130116;27;20071;-76
2022/01/02 06:24:55;;;;;;;12.82;11.32;;;;;;;7.86;71.24;95647.81;5096272;27;20035;-76
2022/01/02 06:27:21;;;;;;;24.35;19.58;;;;;;;7.86;70.93;95658.19;5109031;27;20028;-76
2022/01/02 06:29:46;;;;;;;17.02;14.60;;;;;;;7.84;70.94;95659.06;5090403;27;20047;-76
2022/01/02 06:32:12;;;;;;;16.88;13.85;;;;;;;7.98;70.75;95663.44;5120981;27;20023;-76
2022/01/02 06:34:37;;;;;;;25.38;22.60;;;;;;;7.89;70.64;95653.66;5117924;27;20528;-77
2022/01/02 06:37:03;;;;;;;11.32;9.18;;;;;;;7.68;71.46;95665.22;5109135;27;20022;-76
2022/01/02 06:39:28;;;;;;;10.07;8.27;;;;;;;7.86;70.90;95668.53;5099967;27;20034;-76
2022/01/02 06:41:53;;;;;;;9.50;8.05;;;;;;;7.85;71.19;95657.31;5129803;27;20058;-78
2022/01/02 06:44:19;;;;;;;10.95;8.38;;;;;;;7.89;71.14;95671.75;5123767;27;20043;-75
2022/01/02 06:46:44;;;;;;;18.42;11.85;;;;;;;7.81;71.07;95667.03;5087345;27;20421;-78
2022/01/02 06:49:10;;;;;;;33.15;22.48;;;;;;;7.80;71.49;95675.72;5091530;27;20038;-76
2022/01/02 06:51:35;;;;;;;20.30;14.23;;;;;;;7.93;70.74;95678.41;5123966;27;20031;-76
2022/01/02 06:54:01;;;;;;;15.75;10.60;;;;;;;7.91;70.87;95682.84;5129127;27;20036;-79
2022/01/02 06:56:26;;;;;;;97.85;55.00;;;;;;;8.00;70.84;95687.47;5118061;27;20042;-76
2022/01/02 06:58:52;;;;;;;56.15;36.20;;;;;;;8.04;70.38;95688.94;5125445;27;20019;-77
2022/01/02 07:01:17;;;;;;;39.05;25.27;;;;;;;8.10;69.99;95698.09;5110572;27;20039;-77
2022/01/02 07:03:43;;;;;;;24.30;20.05;;;;;;;8.10;69.85;95694.69;5131229;27;20050;-76
2022/01/02 07:06:08;;;;;;;36.50;29.73;;;;;;;8.15;69.83;95701.25;5102820;27;20024;-78
2022/01/02 07:08:34;;;;;;;20.60;17.23;;;;;;;8.22;69.47;95702.56;5119950;27;20035;-78
2022/01/02 07:11:00;;;;;;;35.35;22.15;;;;;;;8.26;69.57;95698.88;5130123;27;20027;-76
2022/01/02 07:13:25;;;;;;;22.63;14.32;;;;;;;8.30;69.54;95704.69;5128226;27;20039;-77
2022/01/02 07:15:51;;;;;;;15.48;11.10;;;;;;;8.36;69.19;95706.94;5128932;27;20035;-76
2022/01/02 07:18:16;;;;;;;9.32;7.15;;;;;;;8.42;68.89;95698.81;5129282;27;20027;-76
2022/01/02 07:20:42;;;;;;;8.45;6.63;;;;;;;8.48;67.99;95702.78;5127973;27;20031;-76
2022/01/02 07:23:07;;;;;;;9.45;6.65;;;;;;;8.54;67.78;95709.38;5129787;27;20030;-76
2022/01/02 07:25:33;;;;;;;8.00;6.78;;;;;;;8.50;67.78;95708.72;5110643;27;20019;-76
2022/01/02 07:27:59;;;;;;;9.23;7.03;;;;;;;8.54;67.45;95711.94;5123034;27;20027;-80
2022/01/02 07:30:24;;;;;;;8.30;6.55;;;;;;;8.50;67.51;95700.97;5089503;27;20044;-76
2022/01/02 07:32:50;;;;;;;8.23;6.45;;;;;;;8.61;67.29;95708.03;5094919;27;20473;-76
2022/01/02 07:35:15;;;;;;;8.35;6.63;;;;;;;8.67;67.14;95702.53;5110817;28;20118;-76
2022/01/02 07:37:41;;;;;;;8.73;6.00;;;;;;;8.78;67.02;95713.06;5095205;28;20023;-76
2022/01/02 07:40:07;;;;;;;6.70;5.47;;;;;;;8.78;66.79;95702.69;5129670;27;20042;-76
2022/01/02 07:42:32;;;;;;;11.00;8.20;;;;;;;8.72;66.53;95700.47;5128012;27;20493;-76
2022/01/02 07:44:58;;;;;;;8.38;6.15;;;;;;;8.73;66.74;95699.53;5125268;28;20031;-76
2022/01/02 07:47:24;;;;;;;8.25;6.50;;;;;;;8.83;66.78;95712.75;5124263;27;20031;-76
2022/01/02 07:49:49;;;;;;;11.57;9.35;;;;;;;8.74;67.15;95706.38;5091198;28;20123;-76
2022/01/02 07:52:15;;;;;;;7.95;6.10;;;;;;;8.85;67.02;95711.72;5110694;28;20019;-76
2022/01/02 07:54:40;;;;;;;8.73;6.82;;;;;;;8.99;66.32;95697.91;5122936;28;20735;-76
2022/01/02 07:57:06;;;;;;;10.48;8.65;;;;;;;9.01;66.36;95700.44;5115200;27;20018;-76
2022/01/02 07:59:32;;;;;;;12.82;10.98;;;;;;;9.04;66.32;95693.28;5114506;27;20102;-76
2022/01/02 08:01:57;;;;;;;13.38;10.77;;;;;;;9.23;66.33;95705.91;5113050;28;20481;-76
2022/01/02 08:04:23;;;;;;;10.43;8.60;;;;;;;9.27;65.98;95697.00;5127227;27;20039;-76
2022/01/02 08:06:48;;;;;;;10.52;8.43;;;;;;;9.35;65.60;95706.91;5127759;27;20032;-74
2022/01/02 08:09:14;;;;;;;9.00;7.15;;;;;;;9.37;65.08;95705.88;5124406;27;20032;-77
2022/01/02 08:11:39;;;;;;;10.07;8.50;;;;;;;9.60;64.87;95709.56;5110140;28;20475;-74
2022/01/02 08:14:06;;;;;;;12.80;9.25;;;;;;;9.73;64.91;95711.38;5111223;28;20109;-74
2022/01/02 08:16:31;;;;;;;12.80;10.27;;;;;;;9.65;64.95;95709.28;5107224;27;20020;-75
2022/01/02 08:18:56;;;;;;;13.77;10.63;;;;;;;9.66;64.85;95712.72;5130140;27;20103;-75
2022/01/02 08:21:22;;;;;;;8.55;7.05;;;;;;;9.75;64.71;95706.91;5131964;27;20408;-75
2022/01/02 08:23:47;;;;;;;13.18;9.23;;;;;;;9.88;63.88;95717.31;5112380;28;20495;-75
2022/01/02 08:26:13;;;;;;;12.40;8.23;;;;;;;10.09;63.80;95721.13;5126348;27;20035;-75
2022/01/02 08:28:38;;;;;;;9.25;8.15;;;;;;;10.11;62.82;95706.25;5114826;27;20319;-75
2022/01/02 08:31:03;;;;;;;7.20;5.78;;;;;;;10.43;61.40;95721.47;5134400;27;20050;-74
2022/01/02 08:33:29;;;;;;;8.85;7.05;;;;;;;10.45;61.34;95714.41;5132491;27;20046;-75
2022/01/02 08:35:54;;;;;;;8.95;7.75;;;;;;;10.43;61.63;95718.88;5131973;27;20023;-76
2022/01/02 08:38:20;;;;;;;12.88;8.82;;;;;;;10.59;61.24;95711.69;5133826;27;20035;-75
2022/01/02 08:40:45;;;;;;;10.25;7.50;;;;;;;10.60;60.33;95691.75;5116942;27;20023;-76
2022/01/02 08:43:11;;;;;;;9.57;6.90;;;;;;;10.77;60.83;95708.75;5096993;27;20019;-76
2022/01/02 08:45:37;;;;;;;7.70;5.63;;;;;;;10.78;60.61;95713.88;5115083;27;20027;-73
2022/01/02 08:48:03;;;;;;;7.07;6.18;;;;;;;10.99;59.23;95714.13;5122413;27;20032;-72
2022/01/02 08:50:28;;;;;;;8.95;7.45;;;;;;;11.24;59.13;95722.81;5096874;27;20557;-73
2022/01/02 08:52:54;;;;;;;6.55;5.45;;;;;;;11.36;57.58;95721.91;5125619;27;20034;-73
2022/01/02 08:55:19;;;;;;;8.75;6.30;;;;;;;11.29;58.09;95710.31;5133531;27;20023;-73
2022/01/02 08:57:44;;;;;;;6.95;5.70;;;;;;;11.15;57.74;95722.50;5133531;27;20027;-73
2022/01/02 09:00:11;;;;;;;6.63;6.03;;;;;;;11.28;57.55;95721.63;5124113;27;20023;-73
2022/01/02 09:02:36;;;;;;;7.28;5.82;;;;;;;11.27;57.72;95719.97;5109141;27;20122;-73
2022/01/02 09:05:02;;;;;;;9.32;7.00;;;;;;;11.37;57.81;95710.59;5117815;27;20042;-74
2022/01/02 09:07:27;;;;;;;6.43;5.60;;;;;;;11.27;57.24;95697.38;5111712;27;20034;-76
2022/01/02 09:09:53;;;;;;;10.00;7.47;;;;;;;11.47;57.07;95708.13;5093692;27;20034;-77
2022/01/02 09:12:19;;;;;;;12.93;8.93;;;;;;;11.36;57.44;95699.31;5134356;27;20034;-80
2022/01/02 09:14:45;;;;;;;11.77;6.72;;;;;;;11.51;57.40;95707.81;5115805;27;20039;-74
2022/01/02 09:17:10;;;;;;;8.10;5.70;;;;;;;11.70;56.13;95702.09;5129046;27;20515;-75
2022/01/02 09:19:36;;;;;;;9.50;5.85;;;;;;;11.60;56.03;95694.13;5133190;27;20066;-81
2022/01/02 09:22:02;;;;;;;6.97;5.68;;;;;;;11.52;55.76;95691.25;5120642;27;20503;-77
2022/01/02 09:24:28;;;;;;;5.75;5.15;;;;;;;11.55;55.89;95698.84;5154872;27;20027;-73
2022/01/02 09:26:54;;;;;;;6.68;5.78;;;;;;;11.53;55.66;95686.88;5124418;27;20489;-72
2022/01/02 09:29:19;;;;;;;9.23;5.53;;;;;;;11.66;54.89;95679.00;5122441;27;20036;-72
2022/01/02 09:31:45;;;;;;;39.60;17.23;;;;;;;11.56;55.85;95681.44;5127757;27;20504;-72
2022/01/02 09:34:10;;;;;;;12.68;8.95;;;;;;;11.57;55.49;95672.72;5099366;28;20044;-73
2022/01/02 09:36:36;;;;;;;7.68;6.22;;;;;;;11.71;54.73;95667.31;5094665;28;20023;-72
2022/01/02 09:39:02;;;;;;;7.00;6.00;;;;;;;11.63;55.82;95660.06;5095173;28;20063;-73
2022/01/02 09:41:27;;;;;;;5.75;5.13;;;;;;;11.63;54.83;95654.03;5095064;28;20473;-73
2022/01/02 09:43:52;;;;;;;8.05;7.00;;;;;;;11.39;55.23;95652.31;5095100;28;20069;-73
2022/01/02 09:46:22;;;;;;;8.93;7.20;;;;;;;11.60;54.89;95644.69;5078081;28;20035;-72
2022/01/02 09:48:48;;;;;;;5.60;4.90;;;;;;;11.72;54.09;95644.72;5095043;28;20092;-74
2022/01/02 09:51:15;;;;;;;10.32;8.27;;;;;;;11.63;55.08;95656.66;5111925;28;20107;-72
2022/01/02 09:53:40;;;;;;;6.43;5.28;;;;;;;11.61;54.15;95646.34;5094799;28;20529;-73
2022/01/02 09:56:06;;;;;;;5.72;4.70;;;;;;;11.74;54.13;95645.44;5094842;28;20027;-72
2022/01/02 09:58:33;;;;;;;6.00;4.60;;;;;;;11.80;54.93;95640.59;5077919;28;20035;-73
2022/01/02 10:00:59;;;;;;;9.25;6.10;;;;;;;11.69;54.44;95642.34;5111762;28;20023;-73
2022/01/02 10:03:24;;;;;;;10.10;5.78;;;;;;;11.73;55.19;95633.34;5112971;28;20032;-73
2022/01/02 10:05:53;;;;;;;7.78;5.35;;;;;;;11.79;55.07;95631.16;5094657;28;20028;-73
2022/01/02 10:08:39;;;;;;;6.10;4.68;;;;;;;11.95;53.56;95627.41;5094481;28;20032;-72
2022/01/02 10:11:07;;;;;;;6.53;4.55;;;;;;;11.91;53.55;95626.00;5111167;28;20031;-72
2022/01/02 10:13:39;;;;;;;5.75;4.63;;;;;;;12.03;53.01;95620.66;5078010;28;20071;-73
2022/01/02 10:16:06;;;;;;;9.93;4.70;;;;;;;11.95;54.22;95611.78;5112628;28;20074;-73
2022/01/02 10:18:31;;;;;;;9.10;4.25;;;;;;;12.06;53.46;95615.25;5094533;28;20035;-72
2022/01/02 10:20:58;;;;;;;5.45;4.47;;;;;;;12.16;53.28;95604.13;5094715;28;20023;-77
2022/01/02 10:23:24;;;;;;;8.82;6.32;;;;;;;12.23;53.66;95607.91;5077574;28;20489;-76
2022/01/02 10:25:55;;;;;;;8.57;5.53;;;;;;;12.07;53.56;95593.47;5112506;28;20035;-75
2022/01/02 10:28:30;;;;;;;8.68;5.57;;;;;;;12.15;52.89;95592.06;5094267;28;20039;-75
2022/01/02 10:31:03;;;;;;;8.25;6.43;;;;;;;12.05;54.50;95607.53;5095075;28;20048;-76
2022/01/02 10:33:45;;;;;;;6.25;4.85;;;;;;;12.10;53.47;95602.00;5110925;28;20035;-75
2022/01/02 10:36:10;;;;;;;6.90;5.20;;;;;;;11.98;53.83;95601.13;5095591;28;20458;-74
2022/01/02 10:38:36;;;;;;;7.15;5.53;;;;;;;11.99;53.41;95600.19;5109314;28;20039;-75
2022/01/02 10:41:01;;;;;;;5.65;4.65;;;;;;;11.92;53.38;95593.78;5092385;28;20485;-75
2022/01/02 10:43:30;;;;;;;5.82;4.80;;;;;;;11.91;53.91;95594.75;5110796;28;20485;-75
2022/01/02 10:46:02;;;;;;;7.78;4.50;;;;;;;11.94;53.27;95587.53;5110896;28;20019;-75
2022/01/02 10:48:39;;;;;;;4.90;4.10;;;;;;;11.95;52.79;95597.00;5094915;28;20102;-75
2022/01/02 10:51:14;;;;;;;5.32;3.92;;;;;;;11.95;53.03;95585.75;5076910;28;20141;-74
2022/01/02 10:53:56;;;;;;;5.68;4.32;;;;;;;11.89;53.58;95584.44;5094841;28;20061;-75
2022/01/02 10:56:25;;;;;;;7.97;7.18;;;;;;;11.85;53.86;95577.78;5110594;28;20028;-75
2022/01/02 10:58:51;;;;;;;7.03;4.53;;;;;;;11.85;53.21;95570.84;5094118;28;20038;-75
2022/01/02 11:01:16;;;;;;;5.22;4.07;;;;;;;11.94;53.31;95574.50;5110627;28;20023;-75
2022/01/02 11:03:45;;;;;;;5.22;4.18;;;;;;;11.93;53.46;95570.25;5093645;28;20397;-75
2022/01/02 11:06:13;;;;;;;4.63;4.13;;;;;;;11.86;53.54;95574.25;5093575;28;20019;-75
2022/01/02 11:08:42;;;;;;;5.40;4.47;;;;;;;11.87;53.86;95578.53;5110511;28;20524;-74
2022/01/02 11:11:08;;;;;;;5.38;4.38;;;;;;;11.81;54.07;95577.19;5110407;28;20462;-75
2022/01/02 11:13:33;;;;;;;8.13;6.65;;;;;;;11.75;54.20;95556.00;5111602;28;20031;-74
2022/01/02 11:16:01;;;;;;;11.57;8.10;;;;;;;11.92;53.37;95555.56;5110350;28;20020;-75
2022/01/02 11:18:28;;;;;;;8.57;6.72;;;;;;;11.96;53.29;95551.78;5093626;28;20028;-75
2022/01/02 11:20:53;;;;;;;4.40;3.65;;;;;;;11.85;53.59;95554.34;5093447;28;20058;-75
2022/01/02 11:23:21;;;;;;;5.07;3.95;;;;;;;11.91;53.07;95543.50;5110101;28;20062;-75
2022/01/02 11:26:05;;;;;;;5.18;3.53;;;;;;;12.01;52.43;95549.66;5110121;28;20024;-75
2022/01/02 11:28:35;;;;;;;5.13;3.55;;;;;;;11.90;53.33;95548.84;5111558;27;20038;-75
2022/01/02 11:31:01;;;;;;;8.50;5.53;;;;;;;11.88;53.84;95548.13;5111398;28;20044;-75
2022/01/02 11:33:39;;;;;;;9.75;6.55;;;;;;;11.84;53.34;95548.31;5093167;28;20046;-75
2022/01/02 11:36:25;;;;;;;5.20;4.18;;;;;;;11.86;52.93;95540.41;5121747;27;20120;-75
2022/01/02 11:39:20;;;;;;;4.60;3.25;;;;;;;11.95;52.81;95542.34;5134364;27;20047;-74
2022/01/02 11:41:50;;;;;;;9.15;6.95;;;;;;;11.86;53.26;95532.59;5138149;27;20038;-75